createdAt,value
2019-05-07T00:00:15.976Z,2.87
2019-05-07T00:02:42.830Z,1.97
2019-05-07T00:05:09.136Z,2.63
2019-05-07T00:07:35.174Z,2.33
2019-05-07T00:10:03.339Z,2.90
2019-05-07T00:12:29.371Z,3.10
2019-05-07T00:15:00.892Z,2.63
2019-05-07T00:17:23.236Z,2.60
2019-05-07T00:19:49.256Z,2.83
2019-05-07T00:22:15.270Z,2.30
2019-05-07T00:24:42.582Z,3.63
2019-05-07T00:27:08.895Z,2.27
2019-05-07T00:29:34.902Z,2.67
2019-05-07T00:32:02.939Z,3.60
2019-05-07T00:34:32.794Z,1.90
2019-05-07T00:37:02.164Z,2.50
2019-05-07T00:39:32.958Z,2.63
2019-05-07T00:42:02.926Z,2.90
2019-05-07T00:44:29.049Z,3.00
2019-05-07T00:46:55.138Z,2.73
2019-05-07T00:49:22.753Z,3.60
2019-05-07T00:51:48.728Z,2.87
2019-05-07T00:54:14.715Z,2.40
2019-05-07T00:56:42.894Z,2.13
2019-05-07T00:59:08.862Z,2.60
2019-05-07T01:01:35.467Z,2.67
2019-05-07T01:04:02.664Z,2.50
2019-05-07T01:06:28.844Z,2.60
2019-05-07T01:08:54.956Z,2.77
2019-05-07T01:11:22.663Z,2.90
2019-05-07T01:13:48.848Z,2.47
2019-05-07T01:16:14.844Z,2.53
2019-05-07T01:18:42.079Z,2.77
2019-05-07T01:21:08.479Z,2.80
2019-05-07T01:23:34.516Z,2.87
2019-05-07T01:26:00.479Z,3.40
2019-05-07T01:28:26.490Z,2.80
2019-05-07T01:30:52.924Z,2.40
2019-05-07T01:33:23.747Z,3.53
2019-05-07T01:35:57.200Z,2.80
2019-05-07T01:38:23.195Z,3.00
2019-05-07T01:40:49.172Z,2.40
2019-05-07T01:43:15.193Z,3.07
2019-05-07T01:45:49.222Z,3.70
2019-05-07T01:48:12.811Z,3.30
2019-05-07T01:50:38.794Z,2.57
2019-05-07T01:53:04.788Z,4.07
2019-05-07T01:55:31.901Z,2.40
2019-05-07T01:57:57.996Z,3.27
2019-05-07T02:00:24.032Z,2.90
2019-05-07T02:02:54.878Z,3.17
2019-05-07T02:05:25.587Z,3.20
2019-05-07T02:07:53.527Z,2.50
2019-05-07T02:10:23.923Z,3.30
2019-05-07T02:12:50.019Z,3.10
2019-05-07T02:15:16.025Z,3.37
2019-05-07T02:17:43.004Z,3.43
2019-05-07T02:20:09.564Z,2.27
2019-05-07T02:22:35.620Z,3.67
2019-05-07T02:25:03.373Z,3.40
2019-05-07T02:27:29.573Z,2.93
2019-05-07T02:29:55.553Z,2.57
2019-05-07T02:32:24.051Z,2.97
2019-05-07T02:34:49.708Z,2.30
2019-05-07T02:37:17.635Z,3.00
2019-05-07T02:39:48.060Z,2.57
2019-05-07T02:42:14.046Z,3.70
2019-05-07T02:44:58.378Z,2.70
2019-05-07T02:47:24.976Z,2.87
2019-05-07T02:49:53.590Z,2.67
2019-05-07T02:52:24.891Z,3.10
2019-05-07T02:54:55.576Z,3.17
2019-05-07T02:57:24.005Z,2.90
2019-05-07T02:59:50.165Z,3.37
2019-05-07T03:02:16.488Z,4.83
2019-05-07T03:04:43.518Z,2.60
2019-05-07T03:07:12.933Z,2.70
2019-05-07T03:09:37.943Z,2.57
2019-05-07T03:12:04.249Z,3.37
2019-05-07T03:14:32.389Z,3.40
2019-05-07T03:16:58.411Z,3.63
2019-05-07T03:19:24.752Z,3.63
2019-05-07T03:21:53.812Z,2.80
2019-05-07T03:24:37.080Z,3.53
2019-05-07T03:27:03.604Z,2.50
2019-05-07T03:29:33.009Z,3.47
2019-05-07T03:32:16.273Z,3.17
2019-05-07T03:34:47.468Z,3.27
2019-05-07T03:37:15.451Z,3.00
2019-05-07T03:39:43.341Z,3.10
2019-05-07T03:42:09.344Z,3.60
2019-05-07T03:44:39.978Z,3.13
2019-05-07T03:47:14.725Z,3.40
2019-05-07T03:49:42.998Z,3.00
2019-05-07T03:52:08.661Z,2.83
2019-05-07T03:54:34.698Z,3.43
2019-05-07T03:57:10.346Z,3.63
2019-05-07T03:59:30.005Z,2.90
2019-05-07T04:01:55.993Z,2.93
2019-05-07T04:04:23.006Z,3.50
2019-05-07T04:06:49.226Z,3.10
2019-05-07T04:09:15.447Z,4.40
2019-05-07T04:11:43.341Z,3.40
2019-05-07T04:14:09.370Z,3.20
2019-05-07T04:16:35.847Z,2.90
2019-05-07T04:19:03.913Z,3.20
2019-05-07T04:21:29.896Z,3.73
2019-05-07T04:24:13.938Z,3.60
2019-05-07T04:26:44.618Z,3.70
2019-05-07T04:29:22.882Z,3.70
2019-05-07T04:31:47.557Z,3.13
2019-05-07T04:34:15.599Z,3.40
2019-05-07T04:36:43.950Z,3.67
2019-05-07T04:39:12.961Z,3.50
2019-05-07T04:41:38.053Z,3.90
2019-05-07T04:44:04.066Z,3.50
2019-05-07T04:46:33.049Z,3.93
2019-05-07T04:48:58.244Z,3.67
2019-05-07T04:51:26.230Z,4.23
2019-05-07T04:53:54.167Z,3.40
2019-05-07T04:56:23.566Z,4.53
2019-05-07T04:58:48.369Z,3.63
2019-05-07T05:01:16.374Z,3.30
2019-05-07T05:03:43.678Z,3.23
2019-05-07T05:06:09.971Z,3.47
2019-05-07T05:08:36.313Z,3.70
2019-05-07T05:11:03.451Z,4.10
2019-05-07T05:13:32.186Z,4.47
2019-05-07T05:15:59.535Z,2.93
2019-05-07T05:18:25.528Z,3.63
2019-05-07T05:20:59.293Z,3.23
2019-05-07T05:23:29.705Z,3.47
2019-05-07T05:25:56.027Z,3.50
2019-05-07T05:28:22.081Z,3.37
2019-05-07T05:30:50.046Z,3.40
2019-05-07T05:33:16.234Z,4.00
2019-05-07T05:35:43.094Z,3.20
2019-05-07T05:38:09.398Z,3.80
2019-05-07T05:40:35.567Z,3.60
2019-05-07T05:43:19.804Z,3.57
2019-05-07T05:45:47.879Z,3.43
2019-05-07T05:48:13.994Z,3.77
2019-05-07T05:50:56.989Z,4.17
2019-05-07T05:53:32.612Z,5.20
2019-05-07T05:56:02.246Z,3.50
2019-05-07T05:58:43.081Z,4.03
2019-05-07T06:01:31.927Z,3.70
2019-05-07T06:04:08.268Z,3.10
2019-05-07T06:06:36.346Z,3.30
2019-05-07T06:09:24.020Z,4.23
2019-05-07T06:12:08.727Z,4.23
2019-05-07T06:14:36.685Z,3.50
2019-05-07T06:17:07.108Z,3.20
2019-05-07T06:19:42.388Z,4.57
2019-05-07T06:22:26.629Z,3.50
2019-05-07T06:24:56.407Z,3.50
2019-05-07T06:27:22.924Z,2.97
2019-05-07T06:29:49.084Z,3.00
2019-05-07T06:32:16.993Z,2.23
2019-05-07T06:34:44.741Z,2.80
2019-05-07T06:37:11.870Z,3.57
2019-05-07T06:39:45.837Z,3.30
2019-05-07T06:42:25.409Z,3.33
2019-05-07T06:44:56.145Z,2.50
2019-05-07T06:47:22.238Z,2.80
2019-05-07T06:49:48.263Z,3.03
2019-05-07T06:52:14.286Z,3.10
2019-05-07T06:54:42.730Z,2.23
2019-05-07T06:57:08.187Z,2.70
2019-05-07T06:59:38.839Z,2.63
2019-05-07T07:02:23.277Z,2.33
2019-05-07T07:04:52.004Z,1.53
2019-05-07T07:07:29.876Z,2.73
2019-05-07T07:09:58.284Z,2.60
2019-05-07T07:12:33.138Z,2.60
2019-05-07T07:14:59.480Z,2.17
2019-05-07T07:17:25.501Z,2.00
2019-05-07T07:19:52.329Z,2.50
2019-05-07T07:22:18.424Z,2.30
2019-05-07T07:24:44.391Z,1.90
2019-05-07T07:27:10.452Z,2.30
2019-05-07T07:29:38.392Z,2.30
2019-05-07T07:32:06.315Z,3.30
2019-05-07T07:34:34.238Z,1.90
2019-05-07T07:37:17.062Z,2.00
2019-05-07T07:39:43.233Z,3.03
2019-05-07T07:42:09.502Z,2.93
2019-05-07T07:44:35.488Z,1.90
2019-05-07T07:47:02.491Z,2.20
2019-05-07T07:49:28.706Z,2.20
2019-05-07T07:51:54.682Z,1.83
2019-05-07T07:54:22.646Z,2.07
2019-05-07T07:56:56.322Z,1.93
2019-05-07T07:59:23.083Z,2.50
2019-05-07T08:01:52.416Z,1.60
2019-05-07T08:04:18.600Z,2.50
2019-05-07T08:06:45.239Z,2.17
2019-05-07T08:09:12.946Z,2.40
2019-05-07T08:11:39.165Z,2.30
2019-05-07T08:14:05.801Z,2.07
2019-05-07T08:16:32.757Z,1.50
2019-05-07T08:18:58.993Z,2.50
2019-05-07T08:21:25.114Z,2.13
2019-05-07T08:23:52.892Z,1.60
2019-05-07T08:26:19.005Z,2.10
2019-05-07T08:28:45.035Z,2.03
2019-05-07T08:31:13.205Z,1.47
2019-05-07T08:33:46.983Z,2.20
2019-05-07T08:36:15.061Z,1.90
2019-05-07T08:38:52.700Z,2.37
2019-05-07T08:41:22.333Z,1.57
2019-05-07T08:43:51.329Z,1.40
2019-05-07T08:46:32.771Z,2.10
2019-05-07T08:48:58.885Z,2.23
2019-05-07T08:51:24.909Z,2.57
2019-05-07T08:53:52.891Z,2.00
2019-05-07T08:56:18.949Z,3.50
2019-05-07T08:58:45.040Z,2.20
2019-05-07T09:01:11.855Z,2.00
2019-05-07T09:03:43.833Z,1.70
2019-05-07T09:06:11.677Z,2.30
2019-05-07T09:08:37.948Z,2.07
2019-05-07T09:11:03.957Z,2.40
2019-05-07T09:13:29.943Z,2.00
2019-05-07T09:15:56.087Z,1.60
2019-05-07T09:18:22.952Z,1.60
2019-05-07T09:20:49.057Z,1.93
2019-05-07T09:23:15.097Z,1.87
2019-05-07T09:25:46.016Z,1.57
2019-05-07T09:28:12.010Z,2.40
2019-05-07T09:30:48.632Z,1.80
2019-05-07T09:33:16.526Z,3.00
2019-05-07T09:35:44.439Z,2.10
2019-05-07T09:38:12.199Z,2.10
2019-05-07T09:40:38.303Z,1.60
2019-05-07T09:43:04.357Z,2.37
2019-05-07T09:45:32.639Z,3.90
2019-05-07T09:47:58.226Z,1.80
2019-05-07T09:50:24.342Z,2.13
2019-05-07T09:52:51.818Z,1.97
2019-05-07T09:55:18.071Z,2.00
2019-05-07T09:57:44.058Z,1.93
2019-05-07T10:00:12.312Z,2.00
2019-05-07T10:02:38.565Z,1.90
2019-05-07T10:05:04.884Z,1.83
2019-05-07T10:07:32.445Z,1.83
2019-05-07T10:09:58.652Z,2.00
2019-05-07T10:12:33.055Z,1.90
2019-05-07T10:14:59.201Z,3.40
2019-05-07T10:17:32.825Z,1.70
2019-05-07T10:19:59.566Z,2.10
2019-05-07T10:22:25.572Z,1.87
2019-05-07T10:24:52.211Z,1.60
2019-05-07T10:27:18.400Z,1.60
2019-05-07T10:29:44.375Z,2.20
2019-05-07T10:32:12.604Z,2.67
2019-05-07T10:34:38.469Z,2.13
2019-05-07T10:37:04.491Z,1.60
2019-05-07T10:39:32.422Z,1.57
2019-05-07T10:41:58.484Z,1.73
2019-05-07T10:44:26.451Z,1.70
2019-05-07T10:46:54.372Z,1.90
2019-05-07T10:49:22.648Z,1.43
2019-05-07T10:51:48.766Z,1.90
2019-05-07T10:54:15.085Z,1.40
2019-05-07T10:56:41.895Z,1.97
2019-05-07T10:59:08.037Z,1.20
2019-05-07T11:01:42.557Z,0.97
2019-05-07T11:04:08.648Z,1.60
2019-05-07T11:06:34.660Z,1.50
2019-05-07T11:09:00.686Z,1.30
2019-05-07T11:11:26.677Z,1.73
2019-05-07T11:13:55.863Z,1.00
2019-05-07T11:16:22.466Z,1.80
2019-05-07T11:18:51.802Z,1.60
2019-05-07T11:21:19.826Z,1.77
2019-05-07T11:23:45.834Z,1.50
2019-05-07T11:26:12.072Z,1.13
2019-05-07T11:28:38.071Z,1.30
2019-05-07T11:31:04.070Z,1.57
2019-05-07T11:33:32.326Z,1.43
2019-05-07T11:35:57.987Z,1.93
2019-05-07T11:38:24.936Z,1.20
2019-05-07T11:40:51.788Z,1.33
2019-05-07T11:43:22.100Z,1.43
2019-05-07T11:45:54.328Z,1.40
2019-05-07T11:48:22.198Z,2.53
2019-05-07T11:51:01.377Z,1.30
2019-05-07T11:53:22.510Z,1.43
2019-05-07T11:55:48.491Z,2.10
2019-05-07T11:58:14.484Z,2.03
2019-05-07T12:00:43.314Z,1.80
2019-05-07T12:03:09.388Z,1.73
2019-05-07T12:05:35.721Z,1.40
2019-05-07T12:08:02.403Z,2.23
2019-05-07T12:10:28.572Z,2.17
2019-05-07T12:12:54.713Z,1.83
2019-05-07T12:15:21.732Z,2.30
2019-05-07T12:17:48.261Z,2.40
2019-05-07T12:20:14.862Z,1.30
2019-05-07T12:22:51.990Z,2.13
2019-05-07T12:25:19.593Z,2.23
2019-05-07T12:27:46.988Z,1.67
2019-05-07T12:30:32.631Z,1.70
2019-05-07T12:33:06.588Z,1.57
2019-05-07T12:35:33.162Z,1.47
2019-05-07T12:37:59.171Z,1.40
2019-05-07T12:40:25.375Z,1.70
2019-05-07T12:42:52.421Z,1.70
2019-05-07T12:45:18.584Z,1.53
2019-05-07T12:47:44.588Z,1.90
2019-05-07T12:50:10.956Z,1.70
2019-05-07T12:52:39.104Z,1.80
2019-05-07T12:55:11.840Z,1.17
2019-05-07T12:57:37.864Z,1.10
2019-05-07T13:00:25.082Z,1.20
2019-05-07T13:02:52.957Z,1.43
2019-05-07T13:05:18.976Z,1.43
2019-05-07T13:07:46.864Z,2.03
2019-05-07T13:10:12.934Z,2.00
2019-05-07T13:12:38.983Z,1.60
2019-05-07T13:15:05.367Z,1.90
2019-05-07T13:17:33.582Z,2.50
2019-05-07T13:20:01.585Z,2.10
2019-05-07T13:22:27.239Z,1.93
2019-05-07T13:24:53.256Z,2.10
2019-05-07T13:27:19.242Z,2.10
2019-05-07T13:29:45.337Z,1.77
2019-05-07T13:32:12.929Z,1.77
2019-05-07T13:34:39.807Z,2.10
2019-05-07T13:37:13.665Z,2.70
2019-05-07T13:39:42.942Z,2.53
2019-05-07T13:42:12.697Z,3.80
2019-05-07T13:44:43.628Z,2.10
2019-05-07T13:47:23.413Z,1.67
2019-05-07T13:49:53.551Z,2.03
2019-05-07T13:52:17.724Z,2.30
2019-05-07T13:54:43.929Z,2.20
2019-05-07T13:57:12.045Z,2.23
2019-05-07T13:59:38.195Z,1.80
2019-05-07T14:02:06.494Z,2.87
2019-05-07T14:04:32.683Z,1.80
2019-05-07T14:07:01.812Z,1.87
2019-05-07T14:09:27.913Z,1.43
2019-05-07T14:11:53.945Z,3.77
2019-05-07T14:14:22.188Z,1.63
2019-05-07T14:16:48.316Z,1.50
2019-05-07T14:19:14.321Z,1.50
2019-05-07T14:21:42.179Z,1.50
2019-05-07T14:24:08.386Z,1.40
2019-05-07T14:26:34.377Z,1.40
2019-05-07T14:29:01.908Z,2.13
2019-05-07T14:31:28.322Z,2.03
2019-05-07T14:33:58.920Z,1.53
2019-05-07T14:36:31.835Z,2.70
2019-05-07T14:38:57.760Z,1.80
2019-05-07T14:41:25.706Z,1.80
2019-05-07T14:44:02.517Z,2.10
2019-05-07T14:46:43.515Z,1.70
2019-05-07T14:48:56.676Z,1.20
2019-05-07T14:51:22.788Z,1.77
2019-05-07T14:53:48.905Z,1.60
2019-05-07T14:56:15.208Z,2.30
2019-05-07T14:58:42.320Z,1.50
2019-05-07T15:01:08.761Z,1.90
2019-05-07T15:03:34.992Z,1.90
2019-05-07T15:06:02.038Z,1.50
2019-05-07T15:08:28.184Z,1.80
2019-05-07T15:10:54.160Z,1.50
2019-05-07T15:13:21.770Z,1.60
2019-05-07T15:15:48.471Z,2.70
2019-05-07T15:18:25.633Z,1.53
2019-05-07T15:20:52.486Z,2.97
2019-05-07T15:23:26.697Z,1.80
2019-05-07T15:25:53.185Z,3.77
2019-05-07T15:28:19.178Z,3.40
2019-05-07T15:30:52.875Z,2.27
2019-05-07T15:33:19.001Z,1.70
2019-05-07T15:35:45.036Z,1.97
2019-05-07T15:38:11.639Z,1.80
2019-05-07T15:40:37.836Z,2.13
2019-05-07T15:43:04.109Z,1.87
2019-05-07T15:45:30.201Z,2.73
2019-05-07T15:47:57.526Z,3.10
2019-05-07T15:50:25.405Z,1.77
2019-05-07T15:52:58.379Z,1.70
2019-05-07T15:55:24.577Z,1.60
2019-05-07T15:57:52.156Z,1.57
2019-05-07T16:00:23.425Z,1.70
2019-05-07T16:03:09.029Z,3.10
2019-05-07T16:05:35.033Z,1.90
2019-05-07T16:08:01.761Z,2.80
2019-05-07T16:10:29.132Z,1.30
2019-05-07T16:12:55.196Z,1.40
2019-05-07T16:15:22.502Z,1.50
2019-05-07T16:17:52.205Z,1.83
2019-05-07T16:20:18.365Z,1.80
2019-05-07T16:22:49.059Z,2.87
2019-05-07T16:25:15.051Z,1.87
2019-05-07T16:27:42.187Z,1.97
2019-05-07T16:30:13.819Z,2.00
2019-05-07T16:32:38.374Z,2.00
2019-05-07T16:35:05.666Z,1.67
2019-05-07T16:37:32.644Z,1.50
2019-05-07T16:39:58.624Z,1.33
2019-05-07T16:42:24.655Z,1.50
2019-05-07T16:44:52.307Z,2.07
2019-05-07T16:47:18.556Z,1.50
2019-05-07T16:49:44.654Z,2.50
2019-05-07T16:52:12.000Z,1.90
2019-05-07T16:54:38.144Z,1.90
2019-05-07T16:57:15.199Z,1.80
2019-05-07T16:59:42.697Z,1.53
2019-05-07T17:02:13.325Z,1.37
2019-05-07T17:04:42.518Z,1.50
2019-05-07T17:07:10.540Z,1.50
2019-05-07T17:09:36.594Z,1.80
2019-05-07T17:12:04.537Z,2.57
2019-05-07T17:14:30.527Z,1.60
2019-05-07T17:16:56.603Z,1.83
2019-05-07T17:19:22.582Z,1.80
2019-05-07T17:21:48.815Z,1.60
2019-05-07T17:24:14.907Z,2.23
2019-05-07T17:26:42.376Z,2.33
2019-05-07T17:29:09.644Z,1.57
2019-05-07T17:31:35.700Z,1.93
2019-05-07T17:34:03.173Z,1.70
2019-05-07T17:36:29.265Z,1.70
2019-05-07T17:38:55.422Z,1.80
2019-05-07T17:41:26.539Z,1.90
2019-05-07T17:43:49.339Z,1.97
2019-05-07T17:46:15.508Z,1.63
2019-05-07T17:48:42.940Z,1.67
2019-05-07T17:51:12.441Z,2.00
2019-05-07T17:53:38.776Z,1.90
2019-05-07T17:56:04.918Z,1.43
2019-05-07T17:58:32.528Z,1.93
2019-05-07T18:01:01.795Z,1.77
2019-05-07T18:03:32.028Z,2.20
2019-05-07T18:05:57.935Z,2.20
2019-05-07T18:08:23.929Z,1.20
2019-05-07T18:10:49.937Z,3.03
2019-05-07T18:13:15.991Z,1.70
2019-05-07T18:15:42.796Z,2.37
2019-05-07T18:18:12.851Z,2.40
2019-05-07T18:20:38.792Z,1.60
2019-05-07T18:23:07.210Z,1.87
2019-05-07T18:25:32.865Z,2.63
2019-05-07T18:27:59.095Z,1.77
2019-05-07T18:30:25.767Z,2.00
2019-05-07T18:32:56.607Z,2.23
2019-05-07T18:35:23.286Z,1.93
2019-05-07T18:37:52.676Z,2.40
2019-05-07T18:40:20.200Z,1.30
2019-05-07T18:42:46.443Z,2.47
2019-05-07T18:45:12.715Z,1.60
2019-05-07T18:47:38.765Z,1.93
2019-05-07T18:50:05.336Z,2.33
2019-05-07T18:52:31.960Z,3.40
2019-05-07T18:54:58.175Z,2.43
2019-05-07T18:57:24.324Z,2.30
2019-05-07T18:59:50.362Z,2.67
2019-05-07T19:02:16.354Z,2.60
2019-05-07T19:04:42.784Z,4.47
2019-05-07T19:07:09.024Z,4.50
2019-05-07T19:09:35.279Z,4.10
2019-05-07T19:12:01.659Z,5.07
2019-05-07T19:14:27.945Z,3.30
2019-05-07T19:16:53.936Z,3.83
2019-05-07T19:19:22.046Z,2.90
2019-05-07T19:21:47.922Z,2.87
2019-05-07T19:24:14.073Z,2.97
2019-05-07T19:26:41.945Z,4.10
2019-05-07T19:29:08.118Z,2.93
2019-05-07T19:31:34.358Z,3.10
2019-05-07T19:34:00.406Z,3.00
2019-05-07T19:36:26.407Z,2.60
2019-05-07T19:38:52.714Z,2.50
2019-05-07T19:41:18.831Z,3.10
2019-05-07T19:43:44.950Z,2.30
2019-05-07T19:46:12.375Z,2.90
2019-05-07T19:48:38.600Z,3.73
2019-05-07T19:51:04.628Z,3.47
2019-05-07T19:53:32.616Z,3.33
2019-05-07T19:56:03.533Z,3.20
2019-05-07T19:58:29.822Z,4.00
2019-05-07T20:00:57.213Z,3.30
2019-05-07T20:03:23.648Z,4.00
2019-05-07T20:05:52.386Z,4.10
2019-05-07T20:08:18.129Z,3.67
2019-05-07T20:10:46.048Z,3.43
2019-05-07T20:13:12.623Z,3.20
2019-05-07T20:15:42.594Z,3.33
2019-05-07T20:18:08.943Z,3.50
2019-05-07T20:20:35.009Z,4.00
2019-05-07T20:23:02.569Z,4.10
2019-05-07T20:25:28.911Z,4.30
2019-05-07T20:27:55.132Z,2.90
2019-05-07T20:30:22.895Z,2.90
2019-05-07T20:32:49.638Z,3.00
2019-05-07T20:35:15.915Z,3.30
2019-05-07T20:37:42.095Z,3.00
2019-05-07T20:40:08.304Z,2.70
2019-05-07T20:42:34.524Z,3.43
2019-05-07T20:45:02.850Z,3.53
2019-05-07T20:47:28.786Z,3.00
2019-05-07T20:49:54.785Z,3.37
2019-05-07T20:52:22.779Z,3.70
2019-05-07T20:55:02.296Z,4.13
2019-05-07T20:57:31.989Z,3.63
2019-05-07T20:59:58.063Z,3.40
2019-05-07T21:02:24.077Z,3.10
2019-05-07T21:04:51.878Z,3.50
2019-05-07T21:07:18.057Z,3.60
2019-05-07T21:09:44.159Z,2.90
2019-05-07T21:12:10.156Z,3.63
2019-05-07T21:14:36.506Z,3.43
2019-05-07T21:17:02.721Z,3.60
2019-05-07T21:19:28.744Z,3.97
2019-05-07T21:21:54.780Z,3.83
2019-05-07T21:24:22.585Z,3.23
2019-05-07T21:26:48.630Z,3.10
2019-05-07T21:29:14.664Z,3.23
2019-05-07T21:31:42.814Z,3.23
2019-05-07T21:34:08.586Z,3.50
2019-05-07T21:36:34.560Z,3.87
2019-05-07T21:39:02.299Z,3.60
2019-05-07T21:41:28.542Z,3.30
2019-05-07T21:43:54.540Z,3.50
2019-05-07T21:46:22.270Z,2.73
2019-05-07T21:48:48.509Z,3.30
2019-05-07T21:51:14.513Z,3.97
2019-05-07T21:53:43.042Z,7.80
2019-05-07T21:56:23.193Z,6.77
2019-05-07T21:58:53.861Z,5.73
2019-05-07T22:01:21.922Z,6.10
2019-05-07T22:03:49.665Z,10.17
2019-05-07T22:06:15.682Z,11.30
2019-05-07T22:08:41.686Z,7.43
2019-05-07T22:11:09.503Z,6.10
2019-05-07T22:13:35.529Z,5.80
2019-05-07T22:16:02.583Z,6.30
2019-05-07T22:18:28.866Z,5.60
2019-05-07T22:20:54.845Z,4.47
2019-05-07T22:23:24.489Z,4.10
2019-05-07T22:25:51.959Z,4.30
2019-05-07T22:28:17.984Z,3.90
2019-05-07T22:30:52.783Z,3.50
2019-05-07T22:33:37.078Z,3.50
2019-05-07T22:36:03.144Z,3.77
2019-05-07T22:38:29.209Z,3.37
2019-05-07T22:40:55.249Z,3.70
2019-05-07T22:43:22.610Z,3.47
2019-05-07T22:45:48.777Z,3.10
2019-05-07T22:48:14.777Z,3.03
2019-05-07T22:50:42.104Z,3.47
2019-05-07T22:53:08.733Z,2.50
2019-05-07T22:55:34.756Z,3.27
2019-05-07T22:58:05.264Z,3.37
2019-05-07T23:00:33.179Z,3.23
2019-05-07T23:02:59.226Z,3.13
2019-05-07T23:05:25.218Z,3.50
2019-05-07T23:07:52.643Z,4.20
2019-05-07T23:10:18.800Z,3.87
2019-05-07T23:12:44.786Z,3.40
2019-05-07T23:15:11.906Z,3.47
2019-05-07T23:17:38.103Z,3.60
2019-05-07T23:20:04.844Z,3.23
2019-05-07T23:22:32.433Z,4.13
2019-05-07T23:24:59.480Z,3.70
2019-05-07T23:27:25.530Z,3.70
2019-05-07T23:29:52.907Z,3.90
2019-05-07T23:32:19.092Z,3.27
2019-05-07T23:34:45.105Z,3.33
2019-05-07T23:37:11.782Z,4.20
2019-05-07T23:39:45.792Z,4.20
2019-05-07T23:42:19.308Z,4.63
2019-05-07T23:44:45.285Z,4.63
2019-05-07T23:47:12.166Z,3.20
2019-05-07T23:49:38.305Z,3.43
2019-05-07T23:52:04.381Z,4.50
2019-05-07T23:54:31.867Z,3.70
2019-05-07T23:57:05.882Z,4.07
2019-05-07T23:59:26.111Z,3.20
